createdAt,value
2022-10-05T00:01:48.616Z,7.63
2022-10-05T00:04:21.227Z,10.80
2022-10-05T00:06:55.776Z,10.65
2022-10-05T00:09:22.538Z,10.93
2022-10-05T00:11:50.931Z,8.63
2022-10-05T00:14:27.663Z,7.82
2022-10-05T00:16:55.243Z,7.82
2022-10-05T00:19:27.132Z,8.38
2022-10-05T00:21:58.482Z,7.93
2022-10-05T00:24:25.047Z,6.65
2022-10-05T00:26:56.908Z,7.05
2022-10-05T00:29:24.201Z,6.97
2022-10-05T00:31:50.706Z,7.95
2022-10-05T00:34:17.850Z,7.00
2022-10-05T00:36:45.629Z,6.43
2022-10-05T00:39:12.287Z,6.97
2022-10-05T00:42:17.128Z,7.22
2022-10-05T00:44:58.858Z,5.63
2022-10-05T00:47:28.000Z,6.32
2022-10-05T00:50:32.077Z,6.45
2022-10-05T00:53:16.264Z,6.53
2022-10-05T00:56:04.330Z,6.57
2022-10-05T00:58:33.693Z,8.25
2022-10-05T01:01:11.949Z,7.97
2022-10-05T01:04:09.344Z,7.47
2022-10-05T01:06:52.942Z,7.22
2022-10-05T01:09:41.193Z,7.25
2022-10-05T01:12:17.131Z,7.28
2022-10-05T01:15:04.459Z,7.15
2022-10-05T01:17:42.174Z,7.80
2022-10-05T01:20:42.548Z,7.60
2022-10-05T01:23:45.721Z,7.00
2022-10-05T01:26:37.559Z,7.68
2022-10-05T01:29:06.793Z,7.53
2022-10-05T01:31:45.220Z,6.78
2022-10-05T01:34:29.832Z,7.30
2022-10-05T01:37:02.201Z,6.93
2022-10-05T01:39:42.029Z,6.82
2022-10-05T01:42:33.080Z,7.10
2022-10-05T01:48:17.608Z,5.88
2022-10-05T01:51:02.806Z,5.85
2022-10-05T01:53:46.096Z,6.85
2022-10-05T01:56:22.555Z,7.13
2022-10-05T01:59:01.700Z,6.65
2022-10-05T02:01:38.815Z,6.10
2022-10-05T02:04:59.910Z,6.72
2022-10-05T02:07:23.273Z,6.00
2022-10-05T02:10:00.049Z,6.22
2022-10-05T02:12:31.306Z,6.45
2022-10-05T02:15:07.956Z,6.88
2022-10-05T02:17:42.457Z,7.00
2022-10-05T02:20:14.111Z,6.65
2022-10-05T02:22:47.428Z,6.57
2022-10-05T02:25:17.515Z,6.07
2022-10-05T02:28:08.331Z,6.57
2022-10-05T02:30:43.175Z,6.22
2022-10-05T02:33:18.994Z,6.15
2022-10-05T02:35:45.599Z,6.93
2022-10-05T02:38:26.915Z,6.95
2022-10-05T02:41:21.656Z,6.70
2022-10-05T02:43:59.771Z,6.80
2022-10-05T02:46:38.988Z,6.97
2022-10-05T02:49:35.258Z,6.45
2022-10-05T02:52:25.449Z,7.10
2022-10-05T02:55:10.793Z,7.45
2022-10-05T02:58:04.143Z,7.72
2022-10-05T03:00:36.702Z,7.90
2022-10-05T03:03:13.161Z,9.88
2022-10-05T03:05:46.719Z,9.80
2022-10-05T03:08:28.305Z,10.93
2022-10-05T03:11:08.585Z,9.77
2022-10-05T03:13:54.592Z,9.05
2022-10-05T03:16:43.862Z,9.23
2022-10-05T03:19:50.934Z,8.88
2022-10-05T03:22:48.485Z,8.80
2022-10-05T03:25:21.360Z,9.32
2022-10-05T03:27:50.839Z,9.02
2022-10-05T03:30:22.062Z,9.05
2022-10-05T03:32:57.838Z,10.07
2022-10-05T03:35:48.835Z,9.10
2022-10-05T03:40:46.461Z,8.75
2022-10-05T03:43:44.077Z,8.80
2022-10-05T03:46:44.791Z,9.70
2022-10-05T03:49:50.077Z,9.65
2022-10-05T03:52:22.575Z,11.23
2022-10-05T03:55:05.584Z,9.00
2022-10-05T03:57:38.193Z,8.20
2022-10-05T04:00:13.928Z,8.95
2022-10-05T04:02:47.599Z,10.93
2022-10-05T04:05:18.928Z,12.00
2022-10-05T04:07:52.139Z,11.35
2022-10-05T04:10:33.200Z,9.98
2022-10-05T04:13:06.762Z,11.02
2022-10-05T04:16:00.880Z,9.27
2022-10-05T04:18:38.454Z,9.40
2022-10-05T04:21:11.727Z,9.35
2022-10-05T04:23:55.444Z,8.82
2022-10-05T04:26:45.272Z,9.23
2022-10-05T04:29:11.819Z,8.93
2022-10-05T04:32:09.235Z,9.25
2022-10-05T04:34:49.613Z,8.82
2022-10-05T04:37:42.066Z,8.77
2022-10-05T04:40:23.908Z,9.10
2022-10-05T04:43:14.767Z,8.73
2022-10-05T04:46:24.487Z,8.52
2022-10-05T04:49:35.860Z,10.40
2022-10-05T04:52:32.834Z,10.07
2022-10-05T04:55:39.356Z,10.95
2022-10-05T04:58:31.127Z,10.13
2022-10-05T05:01:35.975Z,10.32
2022-10-05T05:04:24.366Z,9.68
2022-10-05T05:07:11.091Z,10.60
2022-10-05T05:09:52.461Z,10.23
2022-10-05T05:12:46.791Z,10.50
2022-10-05T05:15:37.406Z,9.52
2022-10-05T05:18:33.363Z,10.65
2022-10-05T05:21:21.729Z,10.88
2022-10-05T05:24:27.896Z,9.82
2022-10-05T05:27:23.263Z,9.23
2022-10-05T05:29:58.435Z,9.15
2022-10-05T05:32:33.682Z,9.45
2022-10-05T05:35:08.912Z,8.88
2022-10-05T05:38:04.717Z,8.75
2022-10-05T05:40:44.038Z,9.40
2022-10-05T05:43:24.269Z,9.50
2022-10-05T05:45:56.575Z,9.75
2022-10-05T05:48:41.236Z,9.50
2022-10-05T05:51:16.136Z,10.15
2022-10-05T05:53:53.874Z,10.55
2022-10-05T05:56:36.237Z,10.52
2022-10-05T05:59:14.375Z,9.95
2022-10-05T06:01:47.432Z,11.48
2022-10-05T06:04:26.830Z,11.30
2022-10-05T06:06:56.116Z,11.02
2022-10-05T06:09:25.804Z,12.52
2022-10-05T06:11:56.184Z,20.17
2022-10-05T06:14:25.922Z,12.43
2022-10-05T06:17:03.108Z,12.07
2022-10-05T06:19:33.572Z,14.93
2022-10-05T06:22:14.941Z,14.35
2022-10-05T06:25:20.798Z,11.20
2022-10-05T06:28:09.922Z,10.60
2022-10-05T06:31:14.503Z,10.80
2022-10-05T06:33:50.874Z,11.38
2022-10-05T06:36:28.057Z,11.35
2022-10-05T06:39:24.905Z,10.18
2022-10-05T06:41:57.079Z,9.43
2022-10-05T06:44:33.474Z,9.57
2022-10-05T06:47:33.989Z,10.18
2022-10-05T06:50:21.498Z,8.50
2022-10-05T06:53:13.307Z,8.77
2022-10-05T06:55:50.637Z,8.15
2022-10-05T06:59:01.933Z,8.23
2022-10-05T07:04:10.227Z,7.70
2022-10-05T07:06:57.715Z,8.15
2022-10-05T07:09:43.461Z,8.55
2022-10-05T07:12:40.105Z,7.70
2022-10-05T07:15:27.382Z,7.28
2022-10-05T07:18:21.916Z,8.18
2022-10-05T07:21:06.823Z,7.55
2022-10-05T07:23:52.693Z,7.10
2022-10-05T07:26:23.712Z,7.72
2022-10-05T07:28:54.361Z,7.55
2022-10-05T07:31:35.020Z,7.53
2022-10-05T07:34:09.652Z,7.88
2022-10-05T07:37:03.168Z,7.22
2022-10-05T07:40:09.997Z,7.80
2022-10-05T07:42:58.467Z,7.30
2022-10-05T07:45:44.517Z,8.00
2022-10-05T07:48:20.526Z,8.32
2022-10-05T07:50:57.793Z,9.25
2022-10-05T07:53:45.277Z,8.77
2022-10-05T07:56:29.453Z,8.88
2022-10-05T07:59:03.550Z,9.02
2022-10-05T08:01:35.304Z,9.45
2022-10-05T08:04:28.959Z,9.10
2022-10-05T08:07:05.585Z,7.32
2022-10-05T08:09:48.194Z,8.18
2022-10-05T08:12:35.888Z,8.05
2022-10-05T08:15:11.289Z,7.97
2022-10-05T08:17:56.801Z,8.68
2022-10-05T08:20:34.856Z,7.90
2022-10-05T08:23:45.939Z,8.25
2022-10-05T08:26:22.152Z,8.50
2022-10-05T08:29:27.289Z,7.45
2022-10-05T08:32:18.647Z,7.63
2022-10-05T08:35:03.920Z,7.53
2022-10-05T08:37:36.280Z,7.45
2022-10-05T08:40:11.819Z,7.32
2022-10-05T08:43:01.512Z,6.70
2022-10-05T08:45:46.838Z,7.40
2022-10-05T08:48:45.772Z,7.15
2022-10-05T08:51:45.523Z,6.93
2022-10-05T08:54:20.837Z,7.97
2022-10-05T08:57:14.583Z,6.38
2022-10-05T08:59:58.326Z,7.22
2022-10-05T09:02:42.898Z,6.18
2022-10-05T09:05:15.448Z,6.93
2022-10-05T09:08:16.142Z,6.28
2022-10-05T09:10:45.201Z,6.55
2022-10-05T09:13:11.661Z,6.25
2022-10-05T09:15:59.181Z,6.50
2022-10-05T09:18:52.664Z,5.95
2022-10-05T09:21:31.831Z,6.20
2022-10-05T09:24:24.793Z,6.00
2022-10-05T09:27:03.276Z,5.82
2022-10-05T09:29:41.730Z,5.32
2022-10-05T09:32:44.283Z,6.13
2022-10-05T09:35:20.594Z,6.63
2022-10-05T09:37:57.823Z,6.03
2022-10-05T09:40:48.996Z,5.55
2022-10-05T09:43:27.437Z,5.72
2022-10-05T09:46:32.358Z,5.47
2022-10-05T09:49:33.126Z,5.57
2022-10-05T09:54:59.940Z,4.75
2022-10-05T09:57:49.384Z,4.97
2022-10-05T10:00:29.059Z,5.85
2022-10-05T10:03:07.758Z,4.65
2022-10-05T10:05:34.063Z,4.85
2022-10-05T10:08:12.558Z,4.20
2022-10-05T10:10:51.044Z,4.38
2022-10-05T10:13:35.795Z,4.35
2022-10-05T10:16:13.464Z,3.63
2022-10-05T10:19:10.289Z,3.78
2022-10-05T10:22:01.712Z,3.55
2022-10-05T10:24:43.311Z,3.60
2022-10-05T10:27:21.493Z,3.05
2022-10-05T10:29:56.758Z,3.00
2022-10-05T10:32:41.687Z,3.70
2022-10-05T10:35:20.351Z,3.15
2022-10-05T10:37:53.153Z,3.40
2022-10-05T10:40:56.852Z,2.70
2022-10-05T10:43:47.998Z,2.90
2022-10-05T10:46:28.883Z,2.70
2022-10-05T10:49:12.477Z,3.28
2022-10-05T10:52:21.997Z,2.92
2022-10-05T10:55:22.019Z,3.08
2022-10-05T10:58:22.299Z,3.10
2022-10-05T11:01:06.622Z,2.90
2022-10-05T11:03:51.701Z,3.08
2022-10-05T11:06:26.344Z,2.83
2022-10-05T11:09:14.753Z,2.38
2022-10-05T11:11:44.033Z,2.35
2022-10-05T11:14:28.367Z,2.45
2022-10-05T11:17:26.583Z,2.83
2022-10-05T11:20:30.468Z,1.98
2022-10-05T11:23:39.183Z,2.28
2022-10-05T11:26:25.176Z,2.22
2022-10-05T11:29:19.885Z,1.98
2022-10-05T11:32:07.551Z,2.30
2022-10-05T11:34:49.003Z,2.28
2022-10-05T11:37:38.883Z,2.47
2022-10-05T11:40:33.005Z,2.63
2022-10-05T11:43:38.210Z,2.60
2022-10-05T11:46:04.710Z,2.30
2022-10-05T11:48:42.759Z,2.15
2022-10-05T11:51:28.891Z,2.33
2022-10-05T11:54:23.017Z,2.50
2022-10-05T11:57:04.024Z,2.65
2022-10-05T11:59:38.642Z,2.25
2022-10-05T12:02:23.671Z,2.30
2022-10-05T12:05:17.592Z,2.05
2022-10-05T12:08:01.132Z,2.50
2022-10-05T12:10:52.442Z,2.00
2022-10-05T12:13:46.490Z,2.13
2022-10-05T12:16:22.896Z,2.30
2022-10-05T12:18:58.036Z,1.98
2022-10-05T12:21:50.246Z,1.90
2022-10-05T12:24:48.225Z,1.92
2022-10-05T12:27:22.456Z,2.00
2022-10-05T12:30:14.854Z,1.90
2022-10-05T12:32:51.996Z,1.80
2022-10-05T12:35:36.559Z,1.73
2022-10-05T12:38:26.540Z,2.25
2022-10-05T12:41:09.088Z,2.00
2022-10-05T12:43:45.362Z,2.20
2022-10-05T12:46:33.294Z,1.67
2022-10-05T12:49:10.565Z,2.13
2022-10-05T12:51:43.165Z,2.00
2022-10-05T12:54:27.539Z,1.75
2022-10-05T12:56:56.762Z,1.60
2022-10-05T12:59:34.883Z,1.70
2022-10-05T13:02:15.335Z,2.05
2022-10-05T13:04:52.232Z,1.88
2022-10-05T13:07:46.446Z,1.80
2022-10-05T13:10:21.625Z,1.52
2022-10-05T13:13:16.226Z,1.90
2022-10-05T13:16:06.696Z,1.75
2022-10-05T13:18:57.759Z,1.60
2022-10-05T13:21:38.091Z,2.10
2022-10-05T13:26:56.692Z,1.55
2022-10-05T13:29:39.643Z,1.80
2022-10-05T13:32:21.279Z,1.60
2022-10-05T13:35:15.501Z,2.05
2022-10-05T13:37:55.493Z,1.63
2022-10-05T13:40:24.926Z,1.63
2022-10-05T13:42:59.874Z,1.60
2022-10-05T13:45:32.053Z,1.30
2022-10-05T13:48:18.820Z,1.60
2022-10-05T13:50:58.876Z,1.80
2022-10-05T13:53:34.458Z,1.33
2022-10-05T13:56:17.797Z,1.63
2022-10-05T13:59:12.142Z,1.00
2022-10-05T14:01:58.618Z,1.10
2022-10-05T14:04:30.506Z,1.00
2022-10-05T14:07:13.509Z,0.80
2022-10-05T14:09:48.271Z,0.95
2022-10-05T14:12:20.838Z,1.10
2022-10-05T14:14:56.651Z,0.70
2022-10-05T14:17:43.348Z,0.77
2022-10-05T14:20:32.901Z,0.82
2022-10-05T14:23:13.199Z,1.00
2022-10-05T14:25:51.540Z,0.80
2022-10-05T14:28:28.893Z,0.60
2022-10-05T14:31:03.487Z,0.63
2022-10-05T14:33:32.680Z,0.60
2022-10-05T14:35:59.854Z,1.00
2022-10-05T14:38:48.910Z,1.20
2022-10-05T14:41:18.583Z,0.93
2022-10-05T14:44:02.284Z,1.35
2022-10-05T14:46:31.373Z,1.20
2022-10-05T14:49:26.331Z,1.10
2022-10-05T14:51:54.439Z,1.17
2022-10-05T14:54:25.640Z,0.82
2022-10-05T14:57:05.819Z,0.98
2022-10-05T14:59:53.059Z,1.10
2022-10-05T15:02:53.537Z,1.48
2022-10-05T15:07:56.156Z,0.80
2022-10-05T15:10:42.991Z,1.00
2022-10-05T15:13:15.394Z,1.48
2022-10-05T15:15:54.275Z,1.40
2022-10-05T15:18:42.043Z,1.45
2022-10-05T15:21:39.692Z,1.67
2022-10-05T15:24:13.158Z,1.20
2022-10-05T15:26:52.102Z,0.95
2022-10-05T15:30:01.938Z,1.20
2022-10-05T15:32:39.398Z,1.42
2022-10-05T15:35:33.499Z,1.08
2022-10-05T15:38:06.595Z,1.40
2022-10-05T15:40:49.032Z,1.58
2022-10-05T15:43:19.655Z,1.88
2022-10-05T15:46:10.142Z,1.65
2022-10-05T15:51:35.467Z,1.27
2022-10-05T15:54:17.920Z,1.83
2022-10-05T15:56:53.045Z,1.40
2022-10-05T15:59:31.301Z,1.75
2022-10-05T16:02:00.946Z,1.20
2022-10-05T16:04:44.888Z,1.10
2022-10-05T16:07:22.094Z,1.30
2022-10-05T16:09:59.800Z,1.17
2022-10-05T16:12:39.115Z,1.38
2022-10-05T16:15:14.707Z,0.98
2022-10-05T16:17:49.388Z,1.05
2022-10-05T16:20:18.574Z,1.08
2022-10-05T16:23:09.250Z,0.70
2022-10-05T16:26:12.632Z,0.85
2022-10-05T16:28:45.830Z,1.10
2022-10-05T16:31:18.190Z,1.05
2022-10-05T16:34:09.449Z,1.48
2022-10-05T16:37:03.503Z,2.70
2022-10-05T16:39:50.229Z,2.78
2022-10-05T16:42:24.399Z,3.28
2022-10-05T16:45:10.826Z,2.83
2022-10-05T16:47:47.608Z,2.75
2022-10-05T16:50:37.800Z,3.20
2022-10-05T16:53:30.416Z,3.97
2022-10-05T16:56:04.297Z,4.28
2022-10-05T16:58:43.053Z,3.72
2022-10-05T17:01:48.269Z,3.45
2022-10-05T17:04:40.439Z,2.50
2022-10-05T17:07:46.137Z,2.55
2022-10-05T17:10:45.336Z,2.40
2022-10-05T17:13:23.534Z,2.00
2022-10-05T17:16:34.438Z,2.00
2022-10-05T17:19:12.979Z,1.92
2022-10-05T17:21:50.253Z,2.03
2022-10-05T17:24:38.616Z,2.20
2022-10-05T17:27:34.274Z,2.17
2022-10-05T17:30:31.661Z,2.47
2022-10-05T17:33:00.849Z,2.72
2022-10-05T17:35:42.783Z,2.95
2022-10-05T17:38:18.853Z,2.83
2022-10-05T17:41:00.887Z,2.53
2022-10-05T17:43:29.643Z,2.40
2022-10-05T17:45:58.694Z,2.38
2022-10-05T17:48:41.857Z,2.33
2022-10-05T17:51:37.732Z,2.75
2022-10-05T17:54:25.325Z,4.63
2022-10-05T17:56:57.698Z,5.13
2022-10-05T17:59:42.641Z,3.60
2022-10-05T18:02:20.534Z,3.83
2022-10-05T18:05:09.804Z,3.90
2022-10-05T18:07:38.372Z,3.85
2022-10-05T18:10:10.952Z,3.40
2022-10-05T18:12:38.097Z,4.65
2022-10-05T18:15:08.068Z,4.30
2022-10-05T18:17:51.372Z,3.70
2022-10-05T18:20:19.748Z,3.50
2022-10-05T18:22:47.308Z,3.55
2022-10-05T18:25:27.535Z,3.70
2022-10-05T18:28:05.151Z,3.10
2022-10-05T18:31:12.210Z,3.53
2022-10-05T18:34:17.341Z,2.58
2022-10-05T18:37:21.181Z,3.00
2022-10-05T18:39:50.447Z,3.13
2022-10-05T18:42:39.251Z,2.58
2022-10-05T18:45:32.367Z,2.42
2022-10-05T18:48:23.826Z,3.00
2022-10-05T18:50:58.291Z,2.90
2022-10-05T18:53:42.548Z,3.35
2022-10-05T18:56:34.518Z,3.47
2022-10-05T18:59:19.625Z,3.53
2022-10-05T19:01:59.472Z,3.60
2022-10-05T19:05:04.898Z,4.18
2022-10-05T19:07:37.643Z,4.00
2022-10-05T19:10:08.385Z,3.55
2022-10-05T19:15:33.992Z,4.35
2022-10-05T19:18:15.526Z,3.90
2022-10-05T19:20:54.279Z,4.05
2022-10-05T19:23:23.916Z,4.15
2022-10-05T19:25:50.606Z,3.60
2022-10-05T19:28:36.907Z,3.55
2022-10-05T19:31:20.073Z,4.30
2022-10-05T19:33:58.426Z,4.47
2022-10-05T19:36:57.192Z,3.30
2022-10-05T19:39:57.295Z,4.28
2022-10-05T19:42:49.335Z,3.13
2022-10-05T19:45:22.615Z,4.03
2022-10-05T19:48:08.096Z,3.72
2022-10-05T19:50:37.512Z,3.90
2022-10-05T19:53:13.193Z,3.70
2022-10-05T19:55:42.570Z,3.92
2022-10-05T19:58:24.675Z,4.20
2022-10-05T20:01:02.177Z,4.45
2022-10-05T20:03:31.029Z,4.60
2022-10-05T20:06:03.158Z,4.63
2022-10-05T20:08:41.050Z,4.60
2022-10-05T20:11:24.145Z,4.20
2022-10-05T20:14:13.517Z,4.93
2022-10-05T20:16:39.994Z,4.43
2022-10-05T20:19:34.511Z,4.55
2022-10-05T20:22:29.472Z,5.20
2022-10-05T20:25:01.433Z,5.03
2022-10-05T20:27:46.930Z,4.10
2022-10-05T20:30:19.069Z,4.20
2022-10-05T20:32:53.964Z,4.22
2022-10-05T20:35:20.814Z,4.25
2022-10-05T20:37:47.140Z,5.18
2022-10-05T20:40:13.452Z,4.22
2022-10-05T20:42:39.929Z,4.57
2022-10-05T20:45:06.704Z,4.10
2022-10-05T20:47:33.183Z,3.80
2022-10-05T20:49:59.613Z,3.88
2022-10-05T20:52:26.141Z,4.03
2022-10-05T20:54:52.565Z,3.47
2022-10-05T20:57:19.737Z,4.07
2022-10-05T20:59:46.276Z,3.92
2022-10-05T21:02:12.724Z,3.65
2022-10-05T21:04:41.215Z,3.80
2022-10-05T21:07:08.088Z,3.67
2022-10-05T21:09:35.759Z,3.90
2022-10-05T21:12:02.217Z,4.45
2022-10-05T21:14:28.860Z,4.43
2022-10-05T21:16:55.194Z,4.32
2022-10-05T21:19:21.728Z,5.75
2022-10-05T21:21:48.140Z,3.80
2022-10-05T21:24:15.455Z,4.55
2022-10-05T21:26:43.199Z,4.72
2022-10-05T21:29:12.685Z,4.60
2022-10-05T21:31:40.213Z,4.57
2022-10-05T21:34:07.478Z,4.32
2022-10-05T21:36:34.145Z,5.15
2022-10-05T21:39:00.952Z,4.97
2022-10-05T21:41:27.760Z,4.97
2022-10-05T21:43:54.295Z,4.68
2022-10-05T21:46:24.247Z,4.78
2022-10-05T21:48:50.672Z,4.70
2022-10-05T21:51:19.274Z,4.53
2022-10-05T21:53:54.853Z,4.28
2022-10-05T21:56:25.660Z,4.75
2022-10-05T22:01:22.445Z,4.65
2022-10-05T22:03:49.842Z,3.92
2022-10-05T22:06:16.143Z,4.18
2022-10-05T22:08:42.591Z,4.43
2022-10-05T22:11:17.331Z,4.38
2022-10-05T22:13:46.866Z,4.90
2022-10-05T22:16:14.867Z,4.28
2022-10-05T22:18:41.808Z,4.13
2022-10-05T22:21:10.119Z,4.45
2022-10-05T22:23:36.656Z,4.72
2022-10-05T22:26:03.914Z,4.82
2022-10-05T22:28:33.010Z,4.50
2022-10-05T22:31:02.767Z,4.45
2022-10-05T22:33:29.077Z,4.38
2022-10-05T22:35:57.817Z,4.38
2022-10-05T22:38:25.863Z,4.95
2022-10-05T22:40:52.959Z,4.65
2022-10-05T22:43:19.435Z,4.25
2022-10-05T22:45:46.095Z,5.00
2022-10-05T22:48:12.794Z,4.70
2022-10-05T22:50:39.287Z,5.03
2022-10-05T22:53:05.990Z,5.40
2022-10-05T22:55:32.332Z,4.45
2022-10-05T22:57:59.724Z,5.03
2022-10-05T23:00:40.321Z,5.78
2022-10-05T23:03:12.756Z,4.93
2022-10-05T23:05:39.077Z,4.85
2022-10-05T23:08:05.365Z,5.35
2022-10-05T23:10:31.691Z,5.82
2022-10-05T23:13:00.809Z,5.28
2022-10-05T23:15:27.639Z,4.75
2022-10-05T23:17:53.958Z,4.95
2022-10-05T23:20:20.294Z,4.88
2022-10-05T23:22:46.575Z,4.97
2022-10-05T23:25:13.132Z,5.05
2022-10-05T23:27:41.504Z,4.72
2022-10-05T23:30:09.641Z,4.82
2022-10-05T23:32:41.219Z,5.18
2022-10-05T23:35:09.786Z,5.15
2022-10-05T23:37:38.026Z,4.95
2022-10-05T23:40:06.328Z,5.78
2022-10-05T23:42:32.744Z,5.22
2022-10-05T23:44:59.292Z,5.10
2022-10-05T23:47:25.915Z,5.32
2022-10-05T23:49:52.588Z,5.82
2022-10-05T23:52:19.030Z,5.70
2022-10-05T23:54:45.323Z,5.25
2022-10-05T23:57:19.202Z,4.93
2022-10-05T23:59:46.300Z,5.20
